createdAt,value
2016-12-19T00:00:55.126Z,92.94
2016-12-19T00:01:55.122Z,93.04
2016-12-19T00:02:55.120Z,93.32
2016-12-19T00:03:55.114Z,93.51
2016-12-19T00:04:54.790Z,92.85
2016-12-19T00:05:54.779Z,92.94
2016-12-19T00:06:54.770Z,92.94
2016-12-19T00:07:55.094Z,93.04
2016-12-19T00:08:55.094Z,93.7
2016-12-19T00:09:55.086Z,92.85
2016-12-19T00:10:55.078Z,93.13
2016-12-19T00:11:55.079Z,93.13
2016-12-19T00:12:55.067Z,93.04
2016-12-19T00:13:55.066Z,93.42
2016-12-19T00:14:55.062Z,92.29
2016-12-19T00:15:54.743Z,92.66
2016-12-19T00:16:54.727Z,92.47
2016-12-19T00:17:54.723Z,92.47
2016-12-19T00:18:55.046Z,92.38
2016-12-19T00:19:55.051Z,92.19
2016-12-19T00:20:55.039Z,92.94
2016-12-19T00:21:55.035Z,92.19
2016-12-19T00:22:55.023Z,92.19
2016-12-19T00:23:54.695Z,92.38
2016-12-19T00:24:54.691Z,92.29
2016-12-19T00:25:54.695Z,92.19
2016-12-19T00:26:55.011Z,92.66
2016-12-19T00:27:55.007Z,91.62
2016-12-19T00:28:55.003Z,91.53
2016-12-19T00:29:54.671Z,91.62
2016-12-19T00:30:54.999Z,91.43
2016-12-19T00:31:54.988Z,91.72
2016-12-19T00:32:54.659Z,92
2016-12-19T00:33:54.984Z,91.72
2016-12-19T00:34:54.979Z,92.19
2016-12-19T00:35:54.967Z,92.1
2016-12-19T00:36:54.971Z,91.62
2016-12-19T00:37:54.972Z,91.53
2016-12-19T00:38:54.959Z,91.62
2016-12-19T00:39:54.955Z,91.81
2016-12-19T00:40:54.627Z,91.62
2016-12-19T00:41:54.620Z,91.81
2016-12-19T00:42:54.940Z,91.72
2016-12-19T00:43:54.936Z,90.86
2016-12-19T00:44:54.936Z,90.86
2016-12-19T00:45:54.603Z,91.62
2016-12-19T00:46:54.596Z,91.62
2016-12-19T00:47:54.592Z,92
2016-12-19T00:48:54.592Z,91.53
2016-12-19T00:49:54.584Z,91.62
2016-12-19T00:50:54.908Z,91.05
2016-12-19T00:51:54.576Z,91.34
2016-12-19T00:52:54.570Z,91.15
2016-12-19T00:53:54.564Z,90.96
2016-12-19T00:54:54.572Z,90.96
2016-12-19T00:55:54.884Z,91.34
2016-12-19T00:56:54.876Z,91.15
2016-12-19T00:57:54.872Z,91.15
2016-12-19T00:58:54.544Z,91.15
2016-12-19T00:59:54.860Z,91.05
2016-12-19T01:00:54.860Z,91.53
2016-12-19T01:01:54.532Z,91.05
2016-12-19T01:02:54.856Z,91.15
2016-12-19T01:03:54.524Z,91.05
2016-12-19T01:04:54.512Z,91.43
2016-12-19T01:05:54.836Z,91.15
2016-12-19T01:06:54.836Z,91.15
2016-12-19T01:07:54.705Z,91.34
2016-12-19T01:08:54.501Z,91.15
2016-12-19T01:09:54.497Z,90.96
2016-12-19T01:10:54.817Z,91.43
2016-12-19T01:11:54.821Z,91.15
2016-12-19T01:12:54.813Z,91.34
2016-12-19T01:13:54.805Z,91.34
2016-12-19T01:14:54.473Z,91.34
2016-12-19T01:15:54.797Z,91.24
2016-12-19T01:16:54.793Z,91.34
2016-12-19T01:17:54.789Z,91.34
2016-12-19T01:18:54.453Z,91.15
2016-12-19T01:19:54.449Z,91.15
2016-12-19T01:20:54.777Z,91.34
2016-12-19T01:21:54.771Z,91.34
2016-12-19T01:22:54.761Z,90.86
2016-12-19T01:23:54.429Z,91.24
2016-12-19T01:24:54.757Z,90.96
2016-12-19T01:25:54.757Z,91.34
2016-12-19T01:26:54.745Z,91.05
2016-12-19T01:27:54.417Z,90.77
2016-12-19T01:28:54.409Z,91.15
2016-12-19T01:29:54.407Z,91.24
2016-12-19T01:30:54.729Z,91.34
2016-12-19T01:31:54.721Z,91.43
2016-12-19T01:32:54.389Z,91.24
2016-12-19T01:33:54.397Z,91.05
2016-12-19T01:34:54.717Z,91.15
2016-12-19T01:35:54.709Z,91.24
2016-12-19T01:36:54.705Z,90.86
2016-12-19T01:37:54.369Z,91.15
2016-12-19T01:38:54.694Z,90.77
2016-12-19T01:39:54.362Z,91.53
2016-12-19T01:40:54.686Z,91.53
2016-12-19T01:41:54.683Z,91.15
2016-12-19T01:42:54.674Z,91.05
2016-12-19T01:43:54.671Z,91.81
2016-12-19T01:44:54.666Z,91.43
2016-12-19T01:45:54.658Z,91.53
2016-12-19T01:46:54.330Z,91.34
2016-12-19T01:47:54.654Z,91.05
2016-12-19T01:48:54.654Z,91.05
2016-12-19T01:49:54.646Z,91.34
2016-12-19T01:50:54.314Z,91.05
2016-12-19T01:51:54.630Z,91.34
2016-12-19T01:52:54.634Z,91.15
2016-12-19T01:53:54.630Z,91.34
2016-12-19T01:54:54.294Z,91.05
2016-12-19T01:55:54.622Z,90.86
2016-12-19T01:56:54.619Z,90.96
2016-12-19T01:57:54.610Z,91.05
2016-12-19T01:58:54.273Z,91.05
2016-12-19T01:59:54.602Z,91.34
2016-12-19T02:00:54.590Z,90.86
2016-12-19T02:01:54.594Z,90.48
2016-12-19T02:02:54.582Z,90.96
2016-12-19T02:03:54.583Z,90.39
2016-12-19T02:04:54.578Z,90.39
2016-12-19T02:05:54.579Z,90.67
2016-12-19T02:06:54.234Z,90.11
2016-12-19T02:07:54.570Z,90.11
2016-12-19T02:08:54.566Z,90.39
2016-12-19T02:09:54.558Z,90.11
2016-12-19T02:10:54.227Z,89.82
2016-12-19T02:11:54.542Z,89.92
2016-12-19T02:12:54.538Z,89.73
2016-12-19T02:13:54.530Z,89.82
2016-12-19T02:14:54.203Z,89.63
2016-12-19T02:15:54.534Z,89.63
2016-12-19T02:16:54.523Z,89.44
2016-12-19T02:17:54.191Z,89.44
2016-12-19T02:18:54.191Z,89.73
2016-12-19T02:19:54.511Z,90.11
2016-12-19T02:20:54.507Z,89.54
2016-12-19T02:21:54.175Z,89.54
2016-12-19T02:22:54.487Z,89.73
2016-12-19T02:23:54.495Z,89.92
2016-12-19T02:24:54.486Z,89.82
2016-12-19T02:25:54.151Z,90.3
2016-12-19T02:26:54.481Z,90.39
2016-12-19T02:27:54.479Z,90.3
2016-12-19T02:28:54.136Z,90.3
2016-12-19T02:29:54.459Z,89.63
2016-12-19T02:30:54.455Z,89.63
2016-12-19T02:31:54.455Z,89.63
2016-12-19T02:32:54.127Z,90.2
2016-12-19T02:33:54.443Z,89.63
2016-12-19T02:34:54.439Z,90.01
2016-12-19T02:35:54.103Z,89.82
2016-12-19T02:36:54.427Z,89.82
2016-12-19T02:37:54.431Z,89.4
2016-12-19T02:38:54.419Z,89.63
2016-12-19T02:39:54.091Z,89.63
2016-12-19T02:40:54.415Z,89.44
2016-12-19T02:41:54.411Z,89.44
2016-12-19T02:42:54.079Z,89.73
2016-12-19T02:43:54.399Z,89.35
2016-12-19T02:44:54.392Z,89.54
2016-12-19T02:45:54.396Z,89.25
2016-12-19T02:46:54.392Z,89.5
2016-12-19T02:47:54.384Z,89.87
2016-12-19T02:48:54.375Z,89.12
2016-12-19T02:49:54.048Z,90.01
2016-12-19T02:50:54.368Z,89.97
2016-12-19T02:51:54.360Z,89.4
2016-12-19T02:52:54.356Z,89.5
2016-12-19T02:53:54.356Z,89.59
2016-12-19T02:54:54.364Z,89.4
2016-12-19T02:55:54.348Z,89.4
2016-12-19T02:56:54.016Z,89.87
2016-12-19T02:57:54.344Z,89.4
2016-12-19T02:58:54.336Z,89.5
2016-12-19T02:59:54.332Z,89.87
2016-12-19T03:00:54.324Z,89.69
2016-12-19T03:01:54.316Z,89.5
2016-12-19T03:02:54.320Z,89.87
2016-12-19T03:03:54.312Z,89.78
2016-12-19T03:04:54.312Z,89.63
2016-12-19T03:05:54.300Z,89.73
2016-12-19T03:06:54.292Z,89.87
2016-12-19T03:07:54.292Z,89.78
2016-12-19T03:08:54.292Z,89.87
2016-12-19T03:09:54.284Z,89.59
2016-12-19T03:10:54.280Z,89.97
2016-12-19T03:11:54.272Z,89.25
2016-12-19T03:12:54.264Z,89.82
2016-12-19T03:13:54.264Z,89.92
2016-12-19T03:14:54.264Z,89.59
2016-12-19T03:15:53.928Z,89.78
2016-12-19T03:16:54.251Z,89.78
2016-12-19T03:17:54.248Z,90.34
2016-12-19T03:18:53.917Z,90.11
2016-12-19T03:19:54.240Z,89.97
2016-12-19T03:20:54.233Z,90.06
2016-12-19T03:21:53.904Z,90.11
2016-12-19T03:22:54.221Z,90.11
2016-12-19T03:23:54.228Z,90.01
2016-12-19T03:24:54.221Z,90.06
2016-12-19T03:25:54.205Z,90.2
2016-12-19T03:26:54.201Z,90.11
2016-12-19T03:27:54.201Z,90.06
2016-12-19T03:28:54.193Z,89.92
2016-12-19T03:29:54.192Z,90.39
2016-12-19T03:30:53.857Z,90.11
2016-12-19T03:31:54.189Z,90.06
2016-12-19T03:32:54.205Z,90.11
2016-12-19T03:33:53.841Z,89.97
2016-12-19T03:34:54.165Z,90.11
2016-12-19T03:35:54.169Z,89.87
2016-12-19T03:36:53.865Z,90.01
2016-12-19T03:37:54.157Z,90.01
2016-12-19T03:38:54.145Z,90.2
2016-12-19T03:39:54.149Z,90.11
2016-12-19T03:40:54.145Z,89.82
2016-12-19T03:41:53.809Z,89.97
2016-12-19T03:42:54.137Z,90.01
2016-12-19T03:43:54.133Z,90.11
2016-12-19T03:44:53.793Z,90.44
2016-12-19T03:45:54.113Z,90.39
2016-12-19T03:46:54.109Z,90.48
2016-12-19T03:47:53.781Z,90.48
2016-12-19T03:48:54.113Z,90.58
2016-12-19T03:49:54.109Z,90.2
2016-12-19T03:50:53.773Z,90.86
2016-12-19T03:51:54.089Z,90.77
2016-12-19T03:52:53.761Z,90.86
2016-12-19T03:53:54.085Z,90.86
2016-12-19T03:54:54.109Z,90.11
2016-12-19T03:55:53.749Z,90.2
2016-12-19T03:56:54.066Z,91.05
2016-12-19T03:57:54.062Z,90.16
2016-12-19T03:58:54.050Z,89.97
2016-12-19T03:59:54.050Z,90.16
2016-12-19T04:00:54.049Z,90.91
2016-12-19T04:01:54.038Z,90.44
2016-12-19T04:02:54.042Z,90.63
2016-12-19T04:03:53.706Z,91.2
2016-12-19T04:04:53.709Z,90.53
2016-12-19T04:05:54.030Z,90.82
2016-12-19T04:06:54.026Z,91.29
2016-12-19T04:07:54.022Z,91.48
2016-12-19T04:08:54.018Z,91.2
2016-12-19T04:09:54.010Z,91.1
2016-12-19T04:10:54.006Z,91.1
2016-12-19T04:11:53.670Z,91.2
2016-12-19T04:12:53.666Z,91.86
2016-12-19T04:13:53.994Z,91.67
2016-12-19T04:14:53.658Z,91.48
2016-12-19T04:15:53.974Z,91.67
2016-12-19T04:16:53.647Z,91.67
2016-12-19T04:17:53.974Z,91.86
2016-12-19T04:18:53.970Z,91.77
2016-12-19T04:19:53.966Z,91.67
2016-12-19T04:20:53.958Z,91.58
2016-12-19T04:21:53.627Z,91.86
2016-12-19T04:22:53.943Z,92.43
2016-12-19T04:23:53.946Z,92.24
2016-12-19T04:24:53.614Z,91.86
2016-12-19T04:25:53.934Z,92.33
2016-12-19T04:26:53.930Z,92.05
2016-12-19T04:27:53.919Z,92.14
2016-12-19T04:28:53.916Z,92.33
2016-12-19T04:29:53.914Z,92.43
2016-12-19T04:30:53.910Z,92.14
2016-12-19T04:31:53.579Z,92.14
2016-12-19T04:32:53.902Z,91.86
2016-12-19T04:33:53.898Z,92.24
2016-12-19T04:34:53.567Z,92.52
2016-12-19T04:35:53.883Z,91.77
2016-12-19T04:36:53.551Z,92.33
2016-12-19T04:37:53.875Z,92.33
2016-12-19T04:38:53.875Z,93.37
2016-12-19T04:39:53.875Z,93.18
2016-12-19T04:40:53.871Z,93.66
2016-12-19T04:41:53.859Z,93.37
2016-12-19T04:42:53.535Z,93.75
2016-12-19T04:43:53.851Z,94.13
2016-12-19T04:44:53.851Z,94.04
2016-12-19T04:45:53.839Z,93.94
2016-12-19T04:46:53.503Z,94.89
2016-12-19T04:47:53.832Z,94.6
2016-12-19T04:48:53.499Z,94.89
2016-12-19T04:49:53.823Z,94.6
2016-12-19T04:50:53.494Z,94.89
2016-12-19T04:51:53.491Z,94.98
2016-12-19T04:52:53.815Z,95.45
2016-12-19T04:53:53.480Z,95.07
2016-12-19T04:54:53.800Z,95.45
2016-12-19T04:55:53.795Z,95.45
2016-12-19T04:56:53.792Z,95.45
2016-12-19T04:57:53.788Z,96.69
2016-12-19T04:58:53.451Z,96.02
2016-12-19T04:59:53.776Z,96.12
2016-12-19T05:00:53.444Z,96.21
2016-12-19T05:01:53.768Z,96.12
2016-12-19T05:02:53.768Z,95.93
2016-12-19T05:03:53.756Z,96.12
2016-12-19T05:04:53.752Z,96.4
2016-12-19T05:05:53.740Z,96.02
2016-12-19T05:06:53.744Z,96.12
2016-12-19T05:07:53.740Z,96.02
2016-12-19T05:08:53.733Z,95.83
2016-12-19T05:09:53.728Z,96.02
2016-12-19T05:10:53.728Z,95.83
2016-12-19T05:11:53.720Z,95.93
2016-12-19T05:12:53.716Z,95.45
2016-12-19T05:13:53.708Z,95.55
2016-12-19T05:14:53.384Z,95.74
2016-12-19T05:15:53.709Z,95.36
2016-12-19T05:16:53.701Z,95.36
2016-12-19T05:17:53.692Z,95.45
2016-12-19T05:18:53.365Z,95.36
2016-12-19T05:19:53.689Z,95.26
2016-12-19T05:20:53.680Z,95.74
2016-12-19T05:21:53.677Z,95.17
2016-12-19T05:22:53.673Z,94.89
2016-12-19T05:23:53.589Z,95.45
2016-12-19T05:24:53.661Z,95.36
2016-12-19T05:25:53.325Z,94.89
2016-12-19T05:26:53.650Z,94.89
2016-12-19T05:27:53.317Z,95.07
2016-12-19T05:28:53.641Z,96.02
2016-12-19T05:29:53.633Z,94.89
2016-12-19T05:30:53.634Z,94.89
2016-12-19T05:31:53.625Z,95.07
2016-12-19T05:32:53.617Z,94.89
2016-12-19T05:33:53.617Z,94.42
2016-12-19T05:34:53.618Z,94.7
2016-12-19T05:35:53.609Z,94.6
2016-12-19T05:36:53.281Z,94.7
2016-12-19T05:37:53.594Z,94.6
2016-12-19T05:38:53.265Z,94.51
2016-12-19T05:39:53.589Z,94.6
2016-12-19T05:40:53.262Z,94.89
2016-12-19T05:41:53.590Z,94.23
2016-12-19T05:42:53.246Z,94.32
2016-12-19T05:43:53.574Z,94.7
2016-12-19T05:44:53.566Z,94.51
2016-12-19T05:45:53.566Z,94.32
2016-12-19T05:46:53.558Z,93.94
2016-12-19T05:47:53.230Z,94.04
2016-12-19T05:48:53.547Z,94.13
2016-12-19T05:49:53.542Z,94.7
2016-12-19T05:50:53.542Z,93.56
2016-12-19T05:51:53.209Z,94.23
2016-12-19T05:52:53.525Z,93.66
2016-12-19T05:53:53.190Z,93.28
2016-12-19T05:54:53.517Z,93.18
2016-12-19T05:55:53.518Z,93.37
2016-12-19T05:56:53.506Z,93.37
2016-12-19T05:57:53.201Z,93.37
2016-12-19T05:58:53.177Z,93.28
2016-12-19T05:59:53.497Z,93.28
2016-12-19T06:00:53.165Z,93.28
2016-12-19T06:01:53.489Z,92.9
2016-12-19T06:02:53.481Z,92.9
2016-12-19T06:03:53.485Z,92.71
2016-12-19T06:04:53.477Z,92.52
2016-12-19T06:05:53.145Z,92.61
2016-12-19T06:06:53.464Z,93.09
2016-12-19T06:07:53.129Z,92.43
2016-12-19T06:08:53.457Z,92.61
2016-12-19T06:09:53.453Z,92.61
2016-12-19T06:10:53.453Z,92.14
2016-12-19T06:11:53.441Z,91.96
2016-12-19T06:12:53.432Z,92.24
2016-12-19T06:13:53.633Z,92.05
2016-12-19T06:14:53.093Z,92.14
2016-12-19T06:15:53.416Z,92.43
2016-12-19T06:16:53.089Z,92.05
2016-12-19T06:17:53.409Z,92.43
2016-12-19T06:18:53.105Z,92.05
2016-12-19T06:19:53.406Z,92.24
2016-12-19T06:20:53.404Z,91.77
2016-12-19T06:21:53.397Z,92.33
2016-12-19T06:22:53.060Z,92.24
2016-12-19T06:23:53.381Z,92.24
2016-12-19T06:24:53.380Z,92.05
2016-12-19T06:25:53.369Z,92.24
2016-12-19T06:26:53.041Z,92.52
2016-12-19T06:27:53.365Z,92.71
2016-12-19T06:28:53.361Z,92.61
2016-12-19T06:29:53.353Z,92.52
2016-12-19T06:30:53.020Z,92.24
2016-12-19T06:31:53.341Z,91.77
2016-12-19T06:32:53.012Z,92.05
2016-12-19T06:33:53.329Z,92.33
2016-12-19T06:34:53.000Z,92.05
2016-12-19T06:35:53.329Z,92.61
2016-12-19T06:36:53.321Z,92.43
2016-12-19T06:37:52.989Z,92.43
2016-12-19T06:38:53.313Z,92.71
2016-12-19T06:39:52.977Z,92.71
2016-12-19T06:40:52.977Z,92.43
2016-12-19T06:41:52.969Z,92.43
2016-12-19T06:42:53.299Z,92.71
2016-12-19T06:43:53.289Z,92.61
2016-12-19T06:44:53.277Z,92.52
2016-12-19T06:45:53.281Z,92.52
2016-12-19T06:46:52.941Z,92.52
2016-12-19T06:47:53.269Z,91.86
2016-12-19T06:48:52.937Z,91.86
2016-12-19T06:49:53.257Z,92.43
2016-12-19T06:50:53.257Z,92.52
2016-12-19T06:51:52.921Z,92.43
2016-12-19T06:52:53.245Z,92.43
2016-12-19T06:53:52.909Z,92.71
2016-12-19T06:54:53.237Z,92.43
2016-12-19T06:55:53.232Z,92.71
2016-12-19T06:56:52.897Z,92.43
2016-12-19T06:57:53.218Z,92.52
2016-12-19T06:58:53.209Z,92.8
2016-12-19T06:59:53.206Z,92.71
2016-12-19T07:00:53.205Z,92.52
2016-12-19T07:01:52.869Z,92.43
2016-12-19T07:02:53.194Z,92.71
2016-12-19T07:03:53.223Z,91.96
2016-12-19T07:04:53.182Z,92.71
2016-12-19T07:05:53.178Z,92.24
2016-12-19T07:06:52.850Z,92.43
2016-12-19T07:07:53.170Z,92.61
2016-12-19T07:08:52.838Z,92.33
2016-12-19T07:09:52.830Z,91.96
2016-12-19T07:10:53.157Z,92.71
2016-12-19T07:11:53.146Z,92.52
2016-12-19T07:12:53.147Z,92.61
2016-12-19T07:13:53.146Z,92.43
2016-12-19T07:14:52.810Z,92.33
2016-12-19T07:15:53.130Z,92.52
2016-12-19T07:16:52.807Z,92.05
2016-12-19T07:17:53.147Z,92.33
2016-12-19T07:18:53.115Z,92.05
2016-12-19T07:19:52.791Z,92.05
2016-12-19T07:20:53.106Z,92.52
2016-12-19T07:21:53.107Z,92.05
2016-12-19T07:22:52.771Z,91.86
2016-12-19T07:23:53.087Z,92.05
2016-12-19T07:24:53.087Z,92.24
2016-12-19T07:25:52.759Z,92.33
2016-12-19T07:26:52.759Z,92.24
2016-12-19T07:27:53.071Z,92.24
2016-12-19T07:28:53.071Z,92.05
2016-12-19T07:29:52.747Z,92.14
2016-12-19T07:30:52.731Z,92.33
2016-12-19T07:31:53.055Z,92.24
2016-12-19T07:32:53.047Z,92.24
2016-12-19T07:33:52.744Z,92.71
2016-12-19T07:34:53.039Z,92.24
2016-12-19T07:35:52.704Z,92.33
2016-12-19T07:36:53.027Z,91.58
2016-12-19T07:37:52.704Z,91.58
2016-12-19T07:38:52.691Z,91.67
2016-12-19T07:39:52.695Z,91.96
2016-12-19T07:40:52.684Z,91.77
2016-12-19T07:41:53.000Z,91.96
2016-12-19T07:42:53.000Z,91.58
2016-12-19T07:43:52.672Z,91.48
2016-12-19T07:44:52.996Z,91.58
2016-12-19T07:45:52.660Z,91.2
2016-12-19T07:46:52.976Z,91.1
2016-12-19T07:47:52.980Z,91.1
2016-12-19T07:48:52.968Z,91.1
2016-12-19T07:49:52.968Z,91.01
2016-12-19T07:50:52.968Z,91.39
2016-12-19T07:51:52.632Z,91.1
2016-12-19T07:52:52.660Z,90.91
2016-12-19T07:53:52.944Z,91.29
2016-12-19T07:54:52.616Z,91.29
2016-12-19T07:55:52.941Z,91.2
2016-12-19T07:56:52.936Z,91.29
2016-12-19T07:57:52.932Z,91.29
2016-12-19T07:58:52.929Z,91.2
2016-12-19T07:59:52.921Z,91.29
2016-12-19T08:00:52.592Z,91.1
2016-12-19T08:01:52.914Z,91.2
2016-12-19T08:02:52.905Z,90.91
2016-12-19T08:03:52.904Z,91.01
2016-12-19T08:04:52.893Z,91.1
2016-12-19T08:05:52.893Z,91.1
2016-12-19T08:06:52.885Z,90.91
2016-12-19T08:07:52.885Z,91.1
2016-12-19T08:08:52.881Z,90.77
2016-12-19T08:09:52.873Z,91.01
2016-12-19T08:10:52.541Z,90.72
2016-12-19T08:11:52.869Z,90.2
2016-12-19T08:12:52.853Z,90.11
2016-12-19T08:13:52.853Z,90.11
2016-12-19T08:14:52.549Z,89.63
2016-12-19T08:15:52.845Z,89.92
2016-12-19T08:16:52.845Z,89.73
2016-12-19T08:17:52.837Z,90.11
2016-12-19T08:18:52.826Z,89.25
2016-12-19T08:19:52.505Z,89.44
2016-12-19T08:20:52.817Z,89.35
2016-12-19T08:21:52.821Z,89.54
2016-12-19T08:22:52.813Z,89.06
2016-12-19T08:23:52.805Z,89.16
2016-12-19T08:24:52.802Z,89.54
2016-12-19T08:25:52.795Z,89.54
2016-12-19T08:26:52.794Z,88.59
2016-12-19T08:27:52.790Z,88.87
2016-12-19T08:28:52.786Z,88.87
2016-12-19T08:29:52.778Z,88.4
2016-12-19T08:30:52.450Z,88.4
2016-12-19T08:31:52.450Z,87.93
2016-12-19T08:32:52.770Z,88.12
2016-12-19T08:33:52.430Z,87.65
2016-12-19T08:34:52.759Z,87.84
2016-12-19T08:35:52.755Z,87.55
2016-12-19T08:36:52.750Z,87.17
2016-12-19T08:37:52.418Z,86.98
2016-12-19T08:38:52.410Z,87.36
2016-12-19T08:39:52.738Z,87.17
2016-12-19T08:40:52.734Z,87.36
2016-12-19T08:41:52.727Z,87.55
2016-12-19T08:42:52.730Z,87.55
2016-12-19T08:43:52.391Z,87.36
2016-12-19T08:44:52.386Z,88.02
2016-12-19T08:45:52.711Z,87.65
2016-12-19T08:46:52.702Z,87.84
2016-12-19T08:47:52.702Z,87.74
2016-12-19T08:48:52.698Z,87.55
2016-12-19T08:49:52.362Z,88.21
2016-12-19T08:50:52.686Z,87.74
2016-12-19T08:51:52.678Z,88.02
2016-12-19T08:52:52.681Z,88.02
2016-12-19T08:53:52.677Z,88.31
2016-12-19T08:54:52.664Z,88.21
2016-12-19T08:55:52.661Z,88.31
2016-12-19T08:56:52.329Z,88.31
2016-12-19T08:57:52.321Z,88.21
2016-12-19T08:58:52.645Z,88.12
2016-12-19T08:59:52.648Z,88.49
2016-12-19T09:00:52.640Z,88.12
2016-12-19T09:01:52.640Z,88.12
2016-12-19T09:02:52.636Z,88.31
2016-12-19T09:03:52.632Z,87.74
2016-12-19T09:04:52.620Z,87.84
2016-12-19T09:05:52.292Z,87.55
2016-12-19T09:06:52.283Z,87.55
2016-12-19T09:07:52.275Z,86.98
2016-12-19T09:08:52.603Z,86.6
2016-12-19T09:09:52.595Z,86.79
2016-12-19T09:10:52.595Z,86.7
2016-12-19T09:11:52.591Z,86.89
2016-12-19T09:12:52.583Z,86.7
2016-12-19T09:13:52.586Z,86.41
2016-12-19T09:14:52.578Z,86.79
2016-12-19T09:15:52.571Z,86.79
2016-12-19T09:16:52.238Z,86.6
2016-12-19T09:17:52.562Z,86.04
2016-12-19T09:18:52.562Z,86.04
2016-12-19T09:19:52.558Z,86.04
2016-12-19T09:20:52.554Z,86.13
2016-12-19T09:21:52.554Z,86.32
2016-12-19T09:22:52.546Z,86.13
2016-12-19T09:23:52.534Z,86.32
2016-12-19T09:24:52.538Z,86.7
2016-12-19T09:25:52.530Z,86.79
2016-12-19T09:26:52.527Z,86.7
2016-12-19T09:27:52.198Z,86.04
2016-12-19T09:28:52.519Z,86.89
2016-12-19T09:29:52.515Z,86.41
2016-12-19T09:30:52.551Z,86.04
2016-12-19T09:31:52.182Z,85.94
2016-12-19T09:32:52.179Z,85.38
2016-12-19T09:33:52.171Z,85.66
2016-12-19T09:34:52.163Z,85.28
2016-12-19T09:35:52.178Z,85.38
2016-12-19T09:36:52.483Z,85.28
2016-12-19T09:37:52.489Z,85.38
2016-12-19T09:38:52.163Z,85.38
2016-12-19T09:39:52.475Z,85.57
2016-12-19T09:40:52.472Z,85.38
2016-12-19T09:41:52.464Z,85.09
2016-12-19T09:42:52.464Z,85.47
2016-12-19T09:43:52.456Z,85.09
2016-12-19T09:44:52.456Z,85.57
2016-12-19T09:45:52.452Z,85
2016-12-19T09:46:52.444Z,85.66
2016-12-19T09:47:52.120Z,85.57
2016-12-19T09:48:52.428Z,85.57
2016-12-19T09:49:52.104Z,85.57
2016-12-19T09:50:52.097Z,85.47
2016-12-19T09:51:52.100Z,85.47
2016-12-19T09:52:52.420Z,85.47
2016-12-19T09:53:52.417Z,85.28
2016-12-19T09:54:52.417Z,85.61
2016-12-19T09:55:52.085Z,85.51
2016-12-19T09:56:52.081Z,85.28
2016-12-19T09:57:52.402Z,85.13
2016-12-19T09:58:52.393Z,85.51
2016-12-19T09:59:52.390Z,85.13
2016-12-19T10:00:52.381Z,85.04
2016-12-19T10:01:52.053Z,84.75
2016-12-19T10:02:52.377Z,84.66
2016-12-19T10:03:52.374Z,84.85
2016-12-19T10:04:52.369Z,84.85
2016-12-19T10:06:27.131Z,85.09
2016-12-19T10:07:03.207Z,85.19
2016-12-19T10:08:03.203Z,85.13
2016-12-19T10:09:03.247Z,85.09
2016-12-19T10:10:03.195Z,84.9
2016-12-19T10:11:02.872Z,85.09
2016-12-19T10:12:03.194Z,84.94
2016-12-19T10:13:03.183Z,85.32
2016-12-19T10:14:03.222Z,84.71
2016-12-19T10:15:03.190Z,84.81
2016-12-19T10:16:02.864Z,84.42
2016-12-19T10:17:03.179Z,84.52
2016-12-19T10:18:03.179Z,85
2016-12-19T10:19:03.175Z,85.09
2016-12-19T10:20:03.170Z,85.09
2016-12-19T10:21:03.159Z,85.57
2016-12-19T10:22:03.158Z,85.38
2016-12-19T10:23:03.155Z,85.47
2016-12-19T10:24:03.155Z,85.38
2016-12-19T10:25:03.143Z,85.38
2016-12-19T10:26:03.146Z,85.32
2016-12-19T10:27:03.131Z,85.09
2016-12-19T10:28:02.803Z,85.32
2016-12-19T10:29:03.135Z,85.47
2016-12-19T10:30:03.132Z,85.7
2016-12-19T10:31:03.124Z,85.85
2016-12-19T10:32:03.120Z,85.8
2016-12-19T10:33:02.784Z,85.57
2016-12-19T10:34:03.120Z,86.04
2016-12-19T10:35:03.364Z,85.61
2016-12-19T10:36:03.104Z,85.61
2016-12-19T10:37:03.104Z,85.7
2016-12-19T10:38:03.093Z,85.42
2016-12-19T10:39:03.092Z,85.32
2016-12-19T10:40:03.093Z,85.51
2016-12-19T10:41:03.089Z,85.42
2016-12-19T10:42:03.077Z,85.04
2016-12-19T10:43:02.745Z,85.23
2016-12-19T10:44:02.749Z,85.32
2016-12-19T10:45:03.077Z,85.51
2016-12-19T10:46:03.073Z,84.94
2016-12-19T10:47:03.062Z,84.85
2016-12-19T10:48:02.725Z,84.56
2016-12-19T10:49:03.050Z,84.85
2016-12-19T10:50:03.057Z,84.85
2016-12-19T10:51:02.721Z,85.13
2016-12-19T10:52:03.042Z,84.75
2016-12-19T10:53:03.034Z,84.56
2016-12-19T10:54:03.037Z,84.09
2016-12-19T10:55:03.034Z,83.9
2016-12-19T10:56:03.029Z,83.71
2016-12-19T10:57:02.697Z,83.24
2016-12-19T10:58:03.013Z,82.95
2016-12-19T10:59:03.018Z,83.24
2016-12-19T11:00:03.014Z,83.24
2016-12-19T11:01:03.006Z,82.86
2016-12-19T11:02:02.678Z,82.52
2016-12-19T11:03:03.002Z,82.86
2016-12-19T11:04:02.666Z,82.67
2016-12-19T11:05:02.662Z,82.86
2016-12-19T11:06:02.986Z,82.57
2016-12-19T11:07:02.982Z,82.2
2016-12-19T11:08:02.986Z,82.29
2016-12-19T11:09:02.974Z,82.39
2016-12-19T11:10:02.646Z,82.71
2016-12-19T11:11:02.962Z,82.48
2016-12-19T11:12:02.966Z,82.95
2016-12-19T11:13:02.630Z,81.95
2016-12-19T11:14:02.986Z,82.86
2016-12-19T11:15:02.950Z,82.86
2016-12-19T11:16:02.942Z,82.33
2016-12-19T11:17:02.615Z,82.71
2016-12-19T11:18:02.938Z,82.43
2016-12-19T11:19:02.930Z,82.43
2016-12-19T11:20:02.607Z,82.05
2016-12-19T11:21:02.927Z,82.14
2016-12-19T11:22:02.923Z,82.05
2016-12-19T11:23:02.915Z,81.48
2016-12-19T11:24:02.587Z,81.67
2016-12-19T11:25:03.062Z,81.67
2016-12-19T11:26:02.906Z,81.2
2016-12-19T11:27:02.907Z,80.82
2016-12-19T11:28:03.021Z,80.72
2016-12-19T11:29:02.895Z,80.34
2016-12-19T11:30:02.616Z,80.06
2016-12-19T11:31:02.891Z,80.06
2016-12-19T11:32:02.884Z,80.34
2016-12-19T11:33:02.555Z,80.15
2016-12-19T11:34:02.912Z,80.25
2016-12-19T11:35:02.875Z,80.06
2016-12-19T11:36:02.544Z,80.53
2016-12-19T11:37:02.868Z,81.38
2016-12-19T11:38:02.864Z,81.2
2016-12-19T11:39:02.528Z,80.82
2016-12-19T11:40:02.860Z,80.53
2016-12-19T11:41:02.524Z,80.15
2016-12-19T11:42:02.848Z,79.96
2016-12-19T11:43:02.840Z,80.06
2016-12-19T11:44:02.836Z,79.77
2016-12-19T11:45:02.828Z,79.77
2016-12-19T11:46:02.505Z,80.38
2016-12-19T11:47:02.825Z,79.72
2016-12-19T11:48:02.832Z,79.63
2016-12-19T11:49:02.817Z,79.53
2016-12-19T11:50:02.664Z,79.34
2016-12-19T11:51:02.813Z,79.11
2016-12-19T11:52:02.808Z,79.72
2016-12-19T11:53:02.809Z,79.91
2016-12-19T11:54:02.833Z,79.82
2016-12-19T11:55:02.793Z,79.44
2016-12-19T11:56:02.797Z,79.53
2016-12-19T11:57:02.461Z,79.91
2016-12-19T11:58:02.789Z,79.44
2016-12-19T11:59:02.781Z,79.53
2016-12-19T12:00:02.778Z,79.82
2016-12-19T12:01:02.449Z,79.72
2016-12-19T12:02:02.765Z,79.72
2016-12-19T12:03:02.433Z,79.77
2016-12-19T12:04:02.437Z,79.44
2016-12-19T12:05:02.433Z,79.39
2016-12-19T12:06:02.757Z,79.68
2016-12-19T12:07:02.425Z,79.58
2016-12-19T12:08:02.745Z,79.68
2016-12-19T12:09:02.749Z,79.49
2016-12-19T12:10:02.746Z,79.77
2016-12-19T12:11:02.737Z,79.68
2016-12-19T12:12:02.734Z,79.21
2016-12-19T12:13:02.738Z,79.39
2016-12-19T12:14:02.725Z,79.77
2016-12-19T12:15:02.721Z,79.58
2016-12-19T12:16:02.718Z,79.96
2016-12-19T12:17:02.714Z,79.96
2016-12-19T12:18:02.706Z,80.44
2016-12-19T12:19:02.706Z,80.34
2016-12-19T12:20:02.702Z,81.29
2016-12-19T12:21:02.702Z,80.72
2016-12-19T12:22:02.699Z,80.82
2016-12-19T12:23:02.688Z,80.72
2016-12-19T12:24:02.363Z,80.53
2016-12-19T12:25:02.683Z,80.25
2016-12-19T12:26:02.358Z,79.82
2016-12-19T12:27:02.683Z,79.44
2016-12-19T12:28:02.675Z,79.53
2016-12-19T12:29:02.671Z,79.25
2016-12-19T12:30:02.671Z,79.34
2016-12-19T12:31:02.667Z,79.15
2016-12-19T12:32:02.659Z,78.77
2016-12-19T12:33:02.651Z,78.3
2016-12-19T12:34:02.652Z,78.02
2016-12-19T12:35:02.319Z,78.2
2016-12-19T12:36:02.640Z,77.73
2016-12-19T12:37:02.636Z,77.83
2016-12-19T12:38:02.636Z,77.73
2016-12-19T12:39:02.638Z,77.73
2016-12-19T12:40:02.632Z,77.83
2016-12-19T12:41:02.300Z,77.73
2016-12-19T12:42:02.624Z,77.73
2016-12-19T12:43:02.620Z,77.73
2016-12-19T12:44:02.616Z,78.02
2016-12-19T12:45:02.616Z,78.02
2016-12-19T12:46:02.280Z,77.83
2016-12-19T12:47:02.600Z,78.2
2016-12-19T12:48:02.600Z,78.67
2016-12-19T12:49:02.272Z,78.49
2016-12-19T12:50:02.594Z,78.49
2016-12-19T12:51:02.592Z,78.67
2016-12-19T12:52:02.588Z,78.96
2016-12-19T12:53:02.581Z,78.73
2016-12-19T12:54:02.585Z,79.11
2016-12-19T12:55:02.577Z,79.11
2016-12-19T12:56:02.569Z,79.02